sensor_id;sensor_type;location;lat;lon;timestamp;P1;durP1;ratioP1;P2;durP2;ratioP2
15573;SDS011;7888;46.748;8.102;2023-07-24T00:02:05;11.18;;;7.97;;
15573;SDS011;7888;46.748;8.102;2023-07-24T00:04:31;10.52;;;8.48;;
15573;SDS011;7888;46.748;8.102;2023-07-24T00:06:57;9.00;;;7.93;;
15573;SDS011;7888;46.748;8.102;2023-07-24T00:09:23;11.75;;;8.32;;
15573;SDS011;7888;46.748;8.102;2023-07-24T00:11:49;8.75;;;7.70;;
15573;SDS011;7888;46.748;8.102;2023-07-24T00:14:15;14.05;;;7.88;;
15573;SDS011;7888;46.748;8.102;2023-07-24T00:16:42;11.40;;;8.25;;
15573;SDS011;7888;46.748;8.102;2023-07-24T00:19:08;10.48;;;8.20;;
15573;SDS011;7888;46.748;8.102;2023-07-24T00:21:33;9.80;;;7.95;;
15573;SDS011;7888;46.748;8.102;2023-07-24T00:23:59;9.57;;;8.07;;
15573;SDS011;7888;46.748;8.102;2023-07-24T00:26:25;8.80;;;7.78;;
15573;SDS011;7888;46.748;8.102;2023-07-24T00:28:51;10.20;;;8.65;;
15573;SDS011;7888;46.748;8.102;2023-07-24T00:31:16;9.65;;;7.88;;
15573;SDS011;7888;46.748;8.102;2023-07-24T00:33:42;11.20;;;8.45;;
15573;SDS011;7888;46.748;8.102;2023-07-24T00:36:08;10.88;;;8.23;;
15573;SDS011;7888;46.748;8.102;2023-07-24T00:38:34;9.88;;;8.10;;
15573;SDS011;7888;46.748;8.102;2023-07-24T00:40:59;9.57;;;8.38;;
15573;SDS011;7888;46.748;8.102;2023-07-24T00:43:25;10.10;;;8.43;;
15573;SDS011;7888;46.748;8.102;2023-07-24T00:45:51;9.18;;;7.18;;
15573;SDS011;7888;46.748;8.102;2023-07-24T00:48:18;8.57;;;7.68;;
15573;SDS011;7888;46.748;8.102;2023-07-24T00:50:44;9.43;;;7.25;;
15573;SDS011;7888;46.748;8.102;2023-07-24T00:53:11;10.20;;;7.88;;
15573;SDS011;7888;46.748;8.102;2023-07-24T00:55:38;9.32;;;8.10;;
15573;SDS011;7888;46.748;8.102;2023-07-24T00:58:05;9.35;;;7.35;;
15573;SDS011;7888;46.748;8.102;2023-07-24T01:00:31;9.85;;;7.65;;
15573;SDS011;7888;46.748;8.102;2023-07-24T01:02:58;9.20;;;8.02;;
15573;SDS011;7888;46.748;8.102;2023-07-24T01:05:25;8.63;;;7.53;;
15573;SDS011;7888;46.748;8.102;2023-07-24T01:07:54;11.80;;;8.35;;
15573;SDS011;7888;46.748;8.102;2023-07-24T01:10:20;11.05;;;8.18;;
15573;SDS011;7888;46.748;8.102;2023-07-24T01:15:31;9.60;;;8.07;;
15573;SDS011;7888;46.748;8.102;2023-07-24T01:18:08;9.68;;;8.68;;
15573;SDS011;7888;46.748;8.102;2023-07-24T01:20:36;10.13;;;8.90;;
15573;SDS011;7888;46.748;8.102;2023-07-24T01:26:01;12.95;;;7.72;;
15573;SDS011;7888;46.748;8.102;2023-07-24T01:28:30;10.90;;;8.65;;
15573;SDS011;7888;46.748;8.102;2023-07-24T01:30:56;8.60;;;7.30;;
15573;SDS011;7888;46.748;8.102;2023-07-24T01:33:22;10.57;;;8.15;;
15573;SDS011;7888;46.748;8.102;2023-07-24T01:35:59;10.82;;;8.82;;
15573;SDS011;7888;46.748;8.102;2023-07-24T01:38:28;9.68;;;8.13;;
15573;SDS011;7888;46.748;8.102;2023-07-24T01:41:00;9.50;;;8.05;;
15573;SDS011;7888;46.748;8.102;2023-07-24T01:43:27;10.57;;;8.63;;
15573;SDS011;7888;46.748;8.102;2023-07-24T01:45:55;9.57;;;8.18;;
15573;SDS011;7888;46.748;8.102;2023-07-24T01:48:21;11.15;;;8.38;;
15573;SDS011;7888;46.748;8.102;2023-07-24T01:50:47;9.95;;;8.05;;
15573;SDS011;7888;46.748;8.102;2023-07-24T01:53:13;9.32;;;7.85;;
15573;SDS011;7888;46.748;8.102;2023-07-24T01:55:39;9.25;;;8.10;;
15573;SDS011;7888;46.748;8.102;2023-07-24T01:58:04;9.98;;;7.90;;
15573;SDS011;7888;46.748;8.102;2023-07-24T02:00:30;9.68;;;8.27;;
15573;SDS011;7888;46.748;8.102;2023-07-24T02:02:56;9.75;;;8.02;;
15573;SDS011;7888;46.748;8.102;2023-07-24T02:05:22;9.43;;;8.40;;
15573;SDS011;7888;46.748;8.102;2023-07-24T02:07:48;10.27;;;7.95;;
15573;SDS011;7888;46.748;8.102;2023-07-24T02:10:13;10.07;;;8.70;;
15573;SDS011;7888;46.748;8.102;2023-07-24T02:12:39;9.52;;;7.57;;
15573;SDS011;7888;46.748;8.102;2023-07-24T02:15:06;9.50;;;8.07;;
15573;SDS011;7888;46.748;8.102;2023-07-24T02:17:32;10.38;;;8.77;;
15573;SDS011;7888;46.748;8.102;2023-07-24T02:19:58;9.77;;;8.45;;
15573;SDS011;7888;46.748;8.102;2023-07-24T02:22:24;9.32;;;7.68;;
15573;SDS011;7888;46.748;8.102;2023-07-24T02:24:50;9.10;;;8.05;;
15573;SDS011;7888;46.748;8.102;2023-07-24T02:27:29;10.68;;;8.18;;
15573;SDS011;7888;46.748;8.102;2023-07-24T02:29:59;10.30;;;8.15;;
15573;SDS011;7888;46.748;8.102;2023-07-24T02:32:26;10.32;;;8.10;;
15573;SDS011;7888;46.748;8.102;2023-07-24T02:34:52;11.70;;;8.50;;
15573;SDS011;7888;46.748;8.102;2023-07-24T02:37:18;9.85;;;8.32;;
15573;SDS011;7888;46.748;8.102;2023-07-24T02:39:45;9.63;;;7.85;;
15573;SDS011;7888;46.748;8.102;2023-07-24T02:42:11;9.60;;;7.40;;
15573;SDS011;7888;46.748;8.102;2023-07-24T02:44:36;8.93;;;7.80;;
15573;SDS011;7888;46.748;8.102;2023-07-24T02:47:03;11.20;;;8.02;;
15573;SDS011;7888;46.748;8.102;2023-07-24T02:49:29;8.45;;;7.20;;
15573;SDS011;7888;46.748;8.102;2023-07-24T02:51:55;10.13;;;8.18;;
15573;SDS011;7888;46.748;8.102;2023-07-24T02:54:20;12.20;;;8.88;;
15573;SDS011;7888;46.748;8.102;2023-07-24T02:56:46;10.63;;;8.52;;
15573;SDS011;7888;46.748;8.102;2023-07-24T02:59:12;10.38;;;7.85;;
15573;SDS011;7888;46.748;8.102;2023-07-24T03:01:38;9.15;;;7.88;;
15573;SDS011;7888;46.748;8.102;2023-07-24T03:04:03;9.55;;;8.55;;
15573;SDS011;7888;46.748;8.102;2023-07-24T03:06:30;10.13;;;8.55;;
15573;SDS011;7888;46.748;8.102;2023-07-24T03:08:57;9.43;;;8.23;;
15573;SDS011;7888;46.748;8.102;2023-07-24T03:11:22;9.38;;;7.53;;
15573;SDS011;7888;46.748;8.102;2023-07-24T03:13:48;10.50;;;8.68;;
15573;SDS011;7888;46.748;8.102;2023-07-24T03:16:14;9.80;;;8.23;;
15573;SDS011;7888;46.748;8.102;2023-07-24T03:18:42;9.50;;;7.55;;
15573;SDS011;7888;46.748;8.102;2023-07-24T03:21:08;11.20;;;8.00;;
15573;SDS011;7888;46.748;8.102;2023-07-24T03:23:34;9.30;;;7.60;;
15573;SDS011;7888;46.748;8.102;2023-07-24T03:26:00;12.23;;;8.80;;
15573;SDS011;7888;46.748;8.102;2023-07-24T03:28:25;10.73;;;8.98;;
15573;SDS011;7888;46.748;8.102;2023-07-24T03:30:52;9.32;;;7.97;;
15573;SDS011;7888;46.748;8.102;2023-07-24T03:33:18;10.43;;;8.32;;
15573;SDS011;7888;46.748;8.102;2023-07-24T03:35:43;9.57;;;7.85;;
15573;SDS011;7888;46.748;8.102;2023-07-24T03:38:09;11.30;;;8.43;;
15573;SDS011;7888;46.748;8.102;2023-07-24T03:40:35;9.25;;;8.07;;
15573;SDS011;7888;46.748;8.102;2023-07-24T03:43:00;11.68;;;8.50;;
15573;SDS011;7888;46.748;8.102;2023-07-24T03:45:26;10.82;;;8.18;;
15573;SDS011;7888;46.748;8.102;2023-07-24T03:47:52;9.90;;;8.63;;
15573;SDS011;7888;46.748;8.102;2023-07-24T03:50:18;11.73;;;8.93;;
15573;SDS011;7888;46.748;8.102;2023-07-24T03:52:43;8.68;;;7.75;;
15573;SDS011;7888;46.748;8.102;2023-07-24T03:55:09;10.00;;;8.02;;
15573;SDS011;7888;46.748;8.102;2023-07-24T03:57:35;10.50;;;7.82;;
15573;SDS011;7888;46.748;8.102;2023-07-24T04:00:02;10.15;;;7.90;;
15573;SDS011;7888;46.748;8.102;2023-07-24T04:02:28;9.55;;;8.23;;
15573;SDS011;7888;46.748;8.102;2023-07-24T04:04:54;10.52;;;8.25;;
15573;SDS011;7888;46.748;8.102;2023-07-24T04:07:20;9.80;;;8.20;;
15573;SDS011;7888;46.748;8.102;2023-07-24T04:09:45;10.23;;;7.75;;
15573;SDS011;7888;46.748;8.102;2023-07-24T04:12:11;10.70;;;7.88;;
15573;SDS011;7888;46.748;8.102;2023-07-24T04:14:37;10.73;;;8.63;;
15573;SDS011;7888;46.748;8.102;2023-07-24T04:17:03;10.68;;;8.15;;
15573;SDS011;7888;46.748;8.102;2023-07-24T04:19:34;9.45;;;8.07;;
15573;SDS011;7888;46.748;8.102;2023-07-24T04:22:04;12.82;;;8.18;;
15573;SDS011;7888;46.748;8.102;2023-07-24T04:24:31;10.05;;;8.45;;
15573;SDS011;7888;46.748;8.102;2023-07-24T04:27:02;9.90;;;8.00;;
15573;SDS011;7888;46.748;8.102;2023-07-24T04:29:38;9.52;;;7.90;;
15573;SDS011;7888;46.748;8.102;2023-07-24T04:32:10;11.00;;;8.07;;
15573;SDS011;7888;46.748;8.102;2023-07-24T04:35:01;9.77;;;7.88;;
15573;SDS011;7888;46.748;8.102;2023-07-24T04:37:27;8.98;;;7.32;;
15573;SDS011;7888;46.748;8.102;2023-07-24T04:39:53;9.07;;;7.85;;
15573;SDS011;7888;46.748;8.102;2023-07-24T04:42:19;9.43;;;7.32;;
15573;SDS011;7888;46.748;8.102;2023-07-24T04:44:45;8.10;;;6.75;;
15573;SDS011;7888;46.748;8.102;2023-07-24T04:47:11;8.75;;;7.15;;
15573;SDS011;7888;46.748;8.102;2023-07-24T04:49:37;9.23;;;7.22;;
15573;SDS011;7888;46.748;8.102;2023-07-24T04:52:03;11.25;;;7.68;;
15573;SDS011;7888;46.748;8.102;2023-07-24T04:54:30;9.38;;;7.20;;
15573;SDS011;7888;46.748;8.102;2023-07-24T04:57:00;7.85;;;6.75;;
15573;SDS011;7888;46.748;8.102;2023-07-24T04:59:27;9.23;;;7.07;;
15573;SDS011;7888;46.748;8.102;2023-07-24T05:01:54;8.68;;;6.75;;
15573;SDS011;7888;46.748;8.102;2023-07-24T05:04:21;9.60;;;7.15;;
15573;SDS011;7888;46.748;8.102;2023-07-24T05:06:49;8.75;;;7.15;;
15573;SDS011;7888;46.748;8.102;2023-07-24T05:09:45;8.45;;;6.97;;
15573;SDS011;7888;46.748;8.102;2023-07-24T05:12:10;9.63;;;6.93;;
15573;SDS011;7888;46.748;8.102;2023-07-24T05:14:36;8.30;;;6.90;;
15573;SDS011;7888;46.748;8.102;2023-07-24T05:17:02;10.48;;;7.47;;
15573;SDS011;7888;46.748;8.102;2023-07-24T05:19:28;8.38;;;6.85;;
15573;SDS011;7888;46.748;8.102;2023-07-24T05:21:54;8.43;;;6.78;;
15573;SDS011;7888;46.748;8.102;2023-07-24T05:24:19;9.77;;;7.28;;
15573;SDS011;7888;46.748;8.102;2023-07-24T05:26:45;7.72;;;6.60;;
15573;SDS011;7888;46.748;8.102;2023-07-24T05:29:11;7.60;;;6.57;;
15573;SDS011;7888;46.748;8.102;2023-07-24T05:31:37;7.38;;;6.07;;
15573;SDS011;7888;46.748;8.102;2023-07-24T05:34:02;10.05;;;6.90;;
15573;SDS011;7888;46.748;8.102;2023-07-24T05:36:28;7.80;;;6.30;;
15573;SDS011;7888;46.748;8.102;2023-07-24T05:38:54;7.53;;;6.45;;
15573;SDS011;7888;46.748;8.102;2023-07-24T05:41:21;7.47;;;6.03;;
15573;SDS011;7888;46.748;8.102;2023-07-24T05:43:47;6.88;;;6.13;;
15573;SDS011;7888;46.748;8.102;2023-07-24T05:46:12;6.88;;;5.82;;
15573;SDS011;7888;46.748;8.102;2023-07-24T05:48:38;7.10;;;5.60;;
15573;SDS011;7888;46.748;8.102;2023-07-24T05:51:04;7.80;;;5.60;;
15573;SDS011;7888;46.748;8.102;2023-07-24T05:53:29;7.18;;;5.13;;
15573;SDS011;7888;46.748;8.102;2023-07-24T05:55:56;6.78;;;5.85;;
15573;SDS011;7888;46.748;8.102;2023-07-24T05:58:27;7.90;;;6.40;;
15573;SDS011;7888;46.748;8.102;2023-07-24T06:00:53;8.27;;;7.13;;
15573;SDS011;7888;46.748;8.102;2023-07-24T06:03:23;7.50;;;6.30;;
15573;SDS011;7888;46.748;8.102;2023-07-24T06:05:53;9.32;;;6.45;;
15573;SDS011;7888;46.748;8.102;2023-07-24T06:08:19;7.68;;;6.45;;
15573;SDS011;7888;46.748;8.102;2023-07-24T06:10:47;8.32;;;6.63;;
15573;SDS011;7888;46.748;8.102;2023-07-24T06:13:14;7.20;;;6.18;;
15573;SDS011;7888;46.748;8.102;2023-07-24T06:15:43;7.00;;;6.07;;
15573;SDS011;7888;46.748;8.102;2023-07-24T06:18:11;6.80;;;5.90;;
15573;SDS011;7888;46.748;8.102;2023-07-24T06:20:37;7.13;;;5.82;;
15573;SDS011;7888;46.748;8.102;2023-07-24T06:23:03;7.05;;;5.90;;
15573;SDS011;7888;46.748;8.102;2023-07-24T06:25:29;5.53;;;4.95;;
15573;SDS011;7888;46.748;8.102;2023-07-24T06:27:56;6.60;;;5.68;;
15573;SDS011;7888;46.748;8.102;2023-07-24T06:30:22;8.30;;;6.07;;
15573;SDS011;7888;46.748;8.102;2023-07-24T06:32:48;5.97;;;5.38;;
15573;SDS011;7888;46.748;8.102;2023-07-24T06:35:14;7.07;;;6.20;;
15573;SDS011;7888;46.748;8.102;2023-07-24T06:37:40;7.13;;;5.57;;
15573;SDS011;7888;46.748;8.102;2023-07-24T06:40:06;7.00;;;6.30;;
15573;SDS011;7888;46.748;8.102;2023-07-24T06:42:33;7.03;;;5.95;;
15573;SDS011;7888;46.748;8.102;2023-07-24T06:44:59;9.02;;;6.68;;
15573;SDS011;7888;46.748;8.102;2023-07-24T06:47:25;9.27;;;6.88;;
15573;SDS011;7888;46.748;8.102;2023-07-24T06:49:51;8.65;;;7.05;;
15573;SDS011;7888;46.748;8.102;2023-07-24T06:52:17;8.93;;;6.70;;
15573;SDS011;7888;46.748;8.102;2023-07-24T06:54:43;8.35;;;6.43;;
15573;SDS011;7888;46.748;8.102;2023-07-24T06:57:09;9.48;;;6.65;;
15573;SDS011;7888;46.748;8.102;2023-07-24T06:59:34;7.85;;;6.55;;
15573;SDS011;7888;46.748;8.102;2023-07-24T07:02:00;7.85;;;6.60;;
15573;SDS011;7888;46.748;8.102;2023-07-24T07:04:26;7.65;;;6.80;;
15573;SDS011;7888;46.748;8.102;2023-07-24T07:06:52;7.35;;;6.65;;
15573;SDS011;7888;46.748;8.102;2023-07-24T07:09:17;7.32;;;6.40;;
15573;SDS011;7888;46.748;8.102;2023-07-24T07:11:43;7.65;;;6.80;;
15573;SDS011;7888;46.748;8.102;2023-07-24T07:14:09;7.85;;;6.70;;
15573;SDS011;7888;46.748;8.102;2023-07-24T07:16:35;7.78;;;6.30;;
15573;SDS011;7888;46.748;8.102;2023-07-24T07:19:01;7.60;;;6.15;;
15573;SDS011;7888;46.748;8.102;2023-07-24T07:21:27;7.57;;;6.85;;
15573;SDS011;7888;46.748;8.102;2023-07-24T07:23:53;7.47;;;6.13;;
15573;SDS011;7888;46.748;8.102;2023-07-24T07:26:19;10.77;;;7.38;;
15573;SDS011;7888;46.748;8.102;2023-07-24T07:28:45;8.73;;;6.72;;
15573;SDS011;7888;46.748;8.102;2023-07-24T07:31:11;8.07;;;6.57;;
15573;SDS011;7888;46.748;8.102;2023-07-24T07:33:37;9.45;;;6.88;;
15573;SDS011;7888;46.748;8.102;2023-07-24T07:36:03;8.38;;;7.07;;
15573;SDS011;7888;46.748;8.102;2023-07-24T07:38:29;11.15;;;7.28;;
15573;SDS011;7888;46.748;8.102;2023-07-24T07:40:55;8.23;;;7.20;;
15573;SDS011;7888;46.748;8.102;2023-07-24T07:43:21;7.68;;;6.55;;
15573;SDS011;7888;46.748;8.102;2023-07-24T07:45:47;6.68;;;5.97;;
15573;SDS011;7888;46.748;8.102;2023-07-24T07:48:13;8.65;;;6.22;;
15573;SDS011;7888;46.748;8.102;2023-07-24T07:50:38;6.80;;;5.40;;
15573;SDS011;7888;46.748;8.102;2023-07-24T07:53:04;5.20;;;4.70;;
15573;SDS011;7888;46.748;8.102;2023-07-24T07:55:30;5.78;;;5.25;;
15573;SDS011;7888;46.748;8.102;2023-07-24T07:57:56;6.85;;;5.72;;
15573;SDS011;7888;46.748;8.102;2023-07-24T08:00:22;7.78;;;6.22;;
15573;SDS011;7888;46.748;8.102;2023-07-24T08:02:47;8.68;;;6.90;;
15573;SDS011;7888;46.748;8.102;2023-07-24T08:05:13;8.27;;;6.63;;
15573;SDS011;7888;46.748;8.102;2023-07-24T08:07:40;8.13;;;5.90;;
15573;SDS011;7888;46.748;8.102;2023-07-24T08:10:06;7.97;;;6.45;;
15573;SDS011;7888;46.748;8.102;2023-07-24T08:12:32;7.82;;;6.03;;
15573;SDS011;7888;46.748;8.102;2023-07-24T08:14:59;7.10;;;5.07;;
15573;SDS011;7888;46.748;8.102;2023-07-24T08:17:24;6.70;;;5.95;;
15573;SDS011;7888;46.748;8.102;2023-07-24T08:19:50;6.28;;;5.68;;
15573;SDS011;7888;46.748;8.102;2023-07-24T08:22:16;6.43;;;5.75;;
15573;SDS011;7888;46.748;8.102;2023-07-24T08:24:44;6.57;;;5.68;;
15573;SDS011;7888;46.748;8.102;2023-07-24T08:27:10;6.97;;;5.55;;
15573;SDS011;7888;46.748;8.102;2023-07-24T08:29:36;7.47;;;5.82;;
15573;SDS011;7888;46.748;8.102;2023-07-24T08:32:03;7.30;;;6.25;;
15573;SDS011;7888;46.748;8.102;2023-07-24T08:34:30;7.03;;;6.18;;
15573;SDS011;7888;46.748;8.102;2023-07-24T08:36:56;6.03;;;5.40;;
15573;SDS011;7888;46.748;8.102;2023-07-24T08:39:21;5.93;;;5.10;;
15573;SDS011;7888;46.748;8.102;2023-07-24T08:41:47;6.82;;;5.15;;
15573;SDS011;7888;46.748;8.102;2023-07-24T08:44:13;6.07;;;5.00;;
15573;SDS011;7888;46.748;8.102;2023-07-24T08:46:39;7.05;;;5.30;;
15573;SDS011;7888;46.748;8.102;2023-07-24T08:49:06;5.55;;;5.05;;
15573;SDS011;7888;46.748;8.102;2023-07-24T08:51:42;5.80;;;4.75;;
15573;SDS011;7888;46.748;8.102;2023-07-24T08:54:10;5.70;;;5.10;;
15573;SDS011;7888;46.748;8.102;2023-07-24T08:56:37;5.97;;;5.00;;
15573;SDS011;7888;46.748;8.102;2023-07-24T08:59:05;5.78;;;5.07;;
15573;SDS011;7888;46.748;8.102;2023-07-24T09:01:31;5.05;;;4.50;;
15573;SDS011;7888;46.748;8.102;2023-07-24T09:03:57;5.50;;;4.80;;
15573;SDS011;7888;46.748;8.102;2023-07-24T09:06:23;6.30;;;4.45;;
15573;SDS011;7888;46.748;8.102;2023-07-24T09:08:53;4.85;;;4.40;;
15573;SDS011;7888;46.748;8.102;2023-07-24T09:11:19;5.57;;;4.45;;
15573;SDS011;7888;46.748;8.102;2023-07-24T09:13:45;5.38;;;4.70;;
15573;SDS011;7888;46.748;8.102;2023-07-24T09:16:21;5.28;;;4.78;;
15573;SDS011;7888;46.748;8.102;2023-07-24T09:18:51;4.85;;;4.10;;
15573;SDS011;7888;46.748;8.102;2023-07-24T09:21:28;4.95;;;3.90;;
15573;SDS011;7888;46.748;8.102;2023-07-24T09:23:55;4.60;;;4.10;;
15573;SDS011;7888;46.748;8.102;2023-07-24T09:26:22;5.40;;;4.75;;
15573;SDS011;7888;46.748;8.102;2023-07-24T09:28:51;5.38;;;4.88;;
15573;SDS011;7888;46.748;8.102;2023-07-24T09:31:18;5.65;;;4.88;;
15573;SDS011;7888;46.748;8.102;2023-07-24T09:33:44;5.40;;;4.80;;
15573;SDS011;7888;46.748;8.102;2023-07-24T09:36:11;5.35;;;4.65;;
15573;SDS011;7888;46.748;8.102;2023-07-24T09:38:37;6.72;;;5.20;;
15573;SDS011;7888;46.748;8.102;2023-07-24T09:41:04;5.65;;;4.75;;
15573;SDS011;7888;46.748;8.102;2023-07-24T09:43:31;5.18;;;4.68;;
15573;SDS011;7888;46.748;8.102;2023-07-24T09:45:58;4.65;;;4.15;;
15573;SDS011;7888;46.748;8.102;2023-07-24T09:48:24;6.03;;;4.65;;
15573;SDS011;7888;46.748;8.102;2023-07-24T09:50:55;9.52;;;5.25;;
15573;SDS011;7888;46.748;8.102;2023-07-24T09:56:03;4.82;;;4.20;;
15573;SDS011;7888;46.748;8.102;2023-07-24T09:58:35;5.40;;;4.68;;
15573;SDS011;7888;46.748;8.102;2023-07-24T10:01:03;4.88;;;4.38;;
15573;SDS011;7888;46.748;8.102;2023-07-24T10:03:34;4.93;;;4.43;;
15573;SDS011;7888;46.748;8.102;2023-07-24T10:06:03;5.68;;;4.72;;
15573;SDS011;7888;46.748;8.102;2023-07-24T10:08:30;8.45;;;5.15;;
15573;SDS011;7888;46.748;8.102;2023-07-24T10:10:59;5.03;;;4.53;;
15573;SDS011;7888;46.748;8.102;2023-07-24T10:13:26;5.95;;;5.35;;
15573;SDS011;7888;46.748;8.102;2023-07-24T10:15:53;6.72;;;5.90;;
15573;SDS011;7888;46.748;8.102;2023-07-24T10:18:25;6.82;;;5.03;;
15573;SDS011;7888;46.748;8.102;2023-07-24T10:21:06;5.75;;;5.15;;
15573;SDS011;7888;46.748;8.102;2023-07-24T10:23:34;5.95;;;5.35;;
15573;SDS011;7888;46.748;8.102;2023-07-24T10:26:02;6.88;;;5.63;;
15573;SDS011;7888;46.748;8.102;2023-07-24T10:28:32;6.05;;;5.40;;
15573;SDS011;7888;46.748;8.102;2023-07-24T10:31:03;6.28;;;5.60;;
15573;SDS011;7888;46.748;8.102;2023-07-24T10:33:44;5.18;;;4.68;;
15573;SDS011;7888;46.748;8.102;2023-07-24T10:36:11;5.15;;;4.65;;
15573;SDS011;7888;46.748;8.102;2023-07-24T10:38:42;5.78;;;4.80;;
15573;SDS011;7888;46.748;8.102;2023-07-24T10:41:09;6.20;;;5.13;;
15573;SDS011;7888;46.748;8.102;2023-07-24T10:46:37;5.90;;;4.95;;
15573;SDS011;7888;46.748;8.102;2023-07-24T10:49:09;4.88;;;4.38;;
15573;SDS011;7888;46.748;8.102;2023-07-24T10:51:36;4.90;;;4.40;;
15573;SDS011;7888;46.748;8.102;2023-07-24T10:54:03;5.15;;;4.65;;
15573;SDS011;7888;46.748;8.102;2023-07-24T10:56:30;6.03;;;5.28;;
15573;SDS011;7888;46.748;8.102;2023-07-24T10:59:01;5.20;;;4.60;;
15573;SDS011;7888;46.748;8.102;2023-07-24T11:01:28;5.70;;;5.07;;
15573;SDS011;7888;46.748;8.102;2023-07-24T11:03:56;6.22;;;5.03;;
15573;SDS011;7888;46.748;8.102;2023-07-24T11:06:23;5.95;;;4.88;;
15573;SDS011;7888;46.748;8.102;2023-07-24T11:08:52;6.28;;;4.95;;
15573;SDS011;7888;46.748;8.102;2023-07-24T11:11:31;5.90;;;4.80;;
15573;SDS011;7888;46.748;8.102;2023-07-24T11:14:03;6.18;;;4.78;;
15573;SDS011;7888;46.748;8.102;2023-07-24T11:16:29;5.50;;;4.90;;
15573;SDS011;7888;46.748;8.102;2023-07-24T11:18:56;6.18;;;4.50;;
15573;SDS011;7888;46.748;8.102;2023-07-24T11:21:22;5.90;;;4.85;;
15573;SDS011;7888;46.748;8.102;2023-07-24T11:23:49;5.82;;;4.57;;
15573;SDS011;7888;46.748;8.102;2023-07-24T11:26:21;6.53;;;4.60;;
15573;SDS011;7888;46.748;8.102;2023-07-24T11:28:49;5.20;;;4.68;;
15573;SDS011;7888;46.748;8.102;2023-07-24T11:31:17;5.95;;;5.10;;
15573;SDS011;7888;46.748;8.102;2023-07-24T11:33:47;5.95;;;5.07;;
15573;SDS011;7888;46.748;8.102;2023-07-24T11:36:15;6.57;;;4.85;;
15573;SDS011;7888;46.748;8.102;2023-07-24T11:38:41;5.53;;;4.88;;
15573;SDS011;7888;46.748;8.102;2023-07-24T11:41:10;6.50;;;5.20;;
15573;SDS011;7888;46.748;8.102;2023-07-24T11:43:44;5.55;;;4.85;;
15573;SDS011;7888;46.748;8.102;2023-07-24T11:46:24;6.25;;;4.82;;
15573;SDS011;7888;46.748;8.102;2023-07-24T11:48:52;5.53;;;4.90;;
15573;SDS011;7888;46.748;8.102;2023-07-24T11:51:20;5.32;;;4.72;;
15573;SDS011;7888;46.748;8.102;2023-07-24T11:53:46;5.53;;;4.88;;
15573;SDS011;7888;46.748;8.102;2023-07-24T11:56:13;6.78;;;4.90;;
15573;SDS011;7888;46.748;8.102;2023-07-24T11:58:41;5.35;;;4.65;;
15573;SDS011;7888;46.748;8.102;2023-07-24T12:01:06;4.75;;;4.25;;
15573;SDS011;7888;46.748;8.102;2023-07-24T12:03:32;4.75;;;4.32;;
15573;SDS011;7888;46.748;8.102;2023-07-24T12:05:58;4.82;;;4.25;;
15573;SDS011;7888;46.748;8.102;2023-07-24T12:08:33;4.63;;;4.22;;
15573;SDS011;7888;46.748;8.102;2023-07-24T12:11:01;4.82;;;4.35;;
15573;SDS011;7888;46.748;8.102;2023-07-24T12:13:27;5.18;;;4.40;;
15573;SDS011;7888;46.748;8.102;2023-07-24T12:15:53;4.95;;;4.45;;
15573;SDS011;7888;46.748;8.102;2023-07-24T12:18:19;5.22;;;4.35;;
15573;SDS011;7888;46.748;8.102;2023-07-24T12:20:45;6.10;;;4.85;;
15573;SDS011;7888;46.748;8.102;2023-07-24T12:23:12;4.40;;;4.00;;
15573;SDS011;7888;46.748;8.102;2023-07-24T12:25:38;4.78;;;4.30;;
15573;SDS011;7888;46.748;8.102;2023-07-24T12:28:03;4.57;;;4.18;;
15573;SDS011;7888;46.748;8.102;2023-07-24T12:30:29;7.75;;;3.97;;
15573;SDS011;7888;46.748;8.102;2023-07-24T12:32:55;6.13;;;4.15;;
15573;SDS011;7888;46.748;8.102;2023-07-24T12:35:21;4.28;;;3.88;;
15573;SDS011;7888;46.748;8.102;2023-07-24T12:37:46;5.25;;;4.28;;
15573;SDS011;7888;46.748;8.102;2023-07-24T12:40:12;5.05;;;4.50;;
15573;SDS011;7888;46.748;8.102;2023-07-24T12:42:38;5.00;;;3.65;;
15573;SDS011;7888;46.748;8.102;2023-07-24T12:45:04;4.70;;;4.20;;
15573;SDS011;7888;46.748;8.102;2023-07-24T12:47:31;4.82;;;4.38;;
15573;SDS011;7888;46.748;8.102;2023-07-24T12:49:57;4.97;;;4.43;;
15573;SDS011;7888;46.748;8.102;2023-07-24T12:52:24;4.60;;;4.20;;
15573;SDS011;7888;46.748;8.102;2023-07-24T12:54:51;4.53;;;4.13;;
15573;SDS011;7888;46.748;8.102;2023-07-24T12:57:17;4.70;;;4.18;;
15573;SDS011;7888;46.748;8.102;2023-07-24T12:59:42;3.72;;;3.40;;
15573;SDS011;7888;46.748;8.102;2023-07-24T13:02:08;5.68;;;4.40;;
15573;SDS011;7888;46.748;8.102;2023-07-24T13:04:34;4.72;;;4.20;;
15573;SDS011;7888;46.748;8.102;2023-07-24T13:07:00;5.30;;;4.15;;
15573;SDS011;7888;46.748;8.102;2023-07-24T13:09:26;4.80;;;4.30;;
15573;SDS011;7888;46.748;8.102;2023-07-24T13:11:52;4.53;;;4.13;;
15573;SDS011;7888;46.748;8.102;2023-07-24T13:14:19;5.10;;;4.50;;
15573;SDS011;7888;46.748;8.102;2023-07-24T13:16:46;4.40;;;4.00;;
15573;SDS011;7888;46.748;8.102;2023-07-24T13:19:12;5.28;;;4.57;;
15573;SDS011;7888;46.748;8.102;2023-07-24T13:21:38;4.78;;;4.07;;
15573;SDS011;7888;46.748;8.102;2023-07-24T13:24:05;4.22;;;3.83;;
15573;SDS011;7888;46.748;8.102;2023-07-24T13:26:31;5.13;;;4.25;;
15573;SDS011;7888;46.748;8.102;2023-07-24T13:28:58;4.03;;;3.63;;
15573;SDS011;7888;46.748;8.102;2023-07-24T13:31:24;4.20;;;3.58;;
15573;SDS011;7888;46.748;8.102;2023-07-24T13:33:49;4.57;;;4.18;;
15573;SDS011;7888;46.748;8.102;2023-07-24T13:36:15;6.88;;;4.78;;
15573;SDS011;7888;46.748;8.102;2023-07-24T13:38:41;6.43;;;4.45;;
15573;SDS011;7888;46.748;8.102;2023-07-24T13:41:07;4.80;;;4.35;;
15573;SDS011;7888;46.748;8.102;2023-07-24T13:43:33;4.72;;;3.78;;
15573;SDS011;7888;46.748;8.102;2023-07-24T13:46:00;8.07;;;4.22;;
15573;SDS011;7888;46.748;8.102;2023-07-24T13:48:27;3.90;;;3.55;;
15573;SDS011;7888;46.748;8.102;2023-07-24T13:50:54;3.78;;;3.40;;
15573;SDS011;7888;46.748;8.102;2023-07-24T13:53:20;4.78;;;3.55;;
15573;SDS011;7888;46.748;8.102;2023-07-24T13:55:47;4.38;;;3.22;;
15573;SDS011;7888;46.748;8.102;2023-07-24T13:58:13;3.67;;;3.38;;
15573;SDS011;7888;46.748;8.102;2023-07-24T14:00:38;3.80;;;3.50;;
15573;SDS011;7888;46.748;8.102;2023-07-24T14:03:04;3.30;;;3.00;;
15573;SDS011;7888;46.748;8.102;2023-07-24T14:05:31;3.90;;;3.50;;
15573;SDS011;7888;46.748;8.102;2023-07-24T14:07:57;4.07;;;3.45;;
15573;SDS011;7888;46.748;8.102;2023-07-24T14:10:23;4.65;;;3.80;;
15573;SDS011;7888;46.748;8.102;2023-07-24T14:12:49;5.32;;;3.90;;
15573;SDS011;7888;46.748;8.102;2023-07-24T14:15:14;4.82;;;3.83;;
15573;SDS011;7888;46.748;8.102;2023-07-24T14:17:41;12.13;;;7.13;;
15573;SDS011;7888;46.748;8.102;2023-07-24T14:20:07;9.40;;;5.95;;
15573;SDS011;7888;46.748;8.102;2023-07-24T14:22:33;7.80;;;4.93;;
15573;SDS011;7888;46.748;8.102;2023-07-24T14:24:59;5.47;;;4.30;;
15573;SDS011;7888;46.748;8.102;2023-07-24T14:27:25;6.15;;;4.18;;
15573;SDS011;7888;46.748;8.102;2023-07-24T14:29:51;8.98;;;5.53;;
15573;SDS011;7888;46.748;8.102;2023-07-24T14:32:16;4.63;;;4.03;;
15573;SDS011;7888;46.748;8.102;2023-07-24T14:34:42;4.60;;;3.80;;
15573;SDS011;7888;46.748;8.102;2023-07-24T14:37:08;5.35;;;4.00;;
15573;SDS011;7888;46.748;8.102;2023-07-24T14:39:34;4.18;;;3.75;;
15573;SDS011;7888;46.748;8.102;2023-07-24T14:41:59;5.55;;;3.70;;
15573;SDS011;7888;46.748;8.102;2023-07-24T14:44:25;4.00;;;3.42;;
15573;SDS011;7888;46.748;8.102;2023-07-24T14:46:51;5.00;;;3.83;;
15573;SDS011;7888;46.748;8.102;2023-07-24T14:49:17;6.85;;;4.22;;
15573;SDS011;7888;46.748;8.102;2023-07-24T14:51:43;4.75;;;4.10;;
15573;SDS011;7888;46.748;8.102;2023-07-24T14:54:08;6.30;;;3.95;;
15573;SDS011;7888;46.748;8.102;2023-07-24T14:56:34;6.88;;;3.92;;
15573;SDS011;7888;46.748;8.102;2023-07-24T14:59:00;3.97;;;3.55;;
15573;SDS011;7888;46.748;8.102;2023-07-24T15:01:26;7.40;;;4.10;;
15573;SDS011;7888;46.748;8.102;2023-07-24T15:03:53;8.90;;;4.93;;
15573;SDS011;7888;46.748;8.102;2023-07-24T15:06:21;4.88;;;4.05;;
15573;SDS011;7888;46.748;8.102;2023-07-24T15:08:47;3.75;;;3.30;;
15573;SDS011;7888;46.748;8.102;2023-07-24T15:11:18;4.50;;;3.42;;